createdAt,value
2018-09-12T00:01:19.295Z,25.95
2018-09-12T00:03:48.225Z,27.55
2018-09-12T00:06:17.124Z,34.25
2018-09-12T00:08:46.013Z,35.05
2018-09-12T00:11:14.947Z,30.97
2018-09-12T00:13:43.856Z,27.52
2018-09-12T00:16:12.751Z,32.28
2018-09-12T00:18:41.669Z,31.37
2018-09-12T00:21:10.622Z,33.40
2018-09-12T00:23:40.091Z,33.10
2018-09-12T00:26:09.059Z,32.95
2018-09-12T00:28:38.139Z,34.50
2018-09-12T00:31:07.077Z,28.40
2018-09-12T00:33:35.985Z,31.45
2018-09-12T00:36:05.227Z,29.70
2018-09-12T00:38:34.182Z,26.82
2018-09-12T00:41:03.085Z,30.37
2018-09-12T00:43:32.140Z,28.32
2018-09-12T00:46:01.083Z,28.83
2018-09-12T00:48:29.996Z,25.68
2018-09-12T00:50:58.934Z,31.23
2018-09-12T00:53:27.823Z,26.68
2018-09-12T00:55:56.744Z,28.17
2018-09-12T00:58:25.666Z,24.57
2018-09-12T01:00:54.586Z,31.82
2018-09-12T01:03:23.798Z,22.13
2018-09-12T01:05:52.720Z,26.55
2018-09-12T01:08:21.634Z,25.82
2018-09-12T01:10:50.561Z,29.32
2018-09-12T01:13:19.502Z,20.62
2018-09-12T01:15:48.753Z,27.98
2018-09-12T01:18:19.044Z,29.10
2018-09-12T01:20:49.118Z,32.38
2018-09-12T01:23:18.273Z,24.98
2018-09-12T01:25:47.383Z,24.57
2018-09-12T01:28:16.334Z,28.90
2018-09-12T01:30:45.234Z,26.20
2018-09-12T01:33:14.184Z,26.33
2018-09-12T01:35:43.074Z,26.12
2018-09-12T01:38:12.041Z,27.10
2018-09-12T01:40:40.955Z,23.50
2018-09-12T01:43:09.944Z,24.07
2018-09-12T01:45:38.835Z,26.10
2018-09-12T01:48:07.781Z,24.63
2018-09-12T01:50:36.699Z,27.50
2018-09-12T01:53:05.928Z,20.55
2018-09-12T01:55:34.883Z,25.68
2018-09-12T01:58:03.793Z,25.50
2018-09-12T02:00:38.010Z,26.52
2018-09-12T02:03:07.123Z,25.32
2018-09-12T02:05:37.193Z,30.35
2018-09-12T02:08:06.416Z,29.72
2018-09-12T02:10:35.383Z,24.05
2018-09-12T02:13:04.619Z,30.62
2018-09-12T02:15:33.520Z,26.85
2018-09-12T02:18:02.438Z,28.55
2018-09-12T02:20:31.703Z,27.48
2018-09-12T02:23:00.657Z,28.12
2018-09-12T02:25:29.589Z,26.55
2018-09-12T02:27:58.509Z,26.68
2018-09-12T02:30:27.419Z,27.82
2018-09-12T02:32:56.347Z,27.02
2018-09-12T02:35:25.312Z,20.12
2018-09-12T02:37:54.234Z,27.95
2018-09-12T02:40:23.166Z,19.07
2018-09-12T02:42:52.387Z,22.45
2018-09-12T02:45:21.296Z,21.65
2018-09-12T02:47:50.190Z,18.62
2018-09-12T02:50:19.464Z,21.40
2018-09-12T02:52:48.367Z,18.23
2018-09-12T02:55:17.456Z,16.73
2018-09-12T02:57:46.312Z,20.77
2018-09-12T03:00:15.239Z,22.00
2018-09-12T03:02:44.148Z,17.27
2018-09-12T03:05:13.024Z,17.37
2018-09-12T03:07:41.943Z,22.62
2018-09-12T03:10:10.857Z,21.87
2018-09-12T03:12:39.758Z,20.17
2018-09-12T03:15:08.654Z,20.60
2018-09-12T03:17:37.614Z,20.45
2018-09-12T03:20:06.502Z,20.97
2018-09-12T03:22:35.370Z,18.45
2018-09-12T03:25:04.260Z,16.37
2018-09-12T03:27:33.169Z,16.32
2018-09-12T03:30:02.079Z,15.55
2018-09-12T03:32:30.974Z,18.25
2018-09-12T03:34:59.864Z,20.17
2018-09-12T03:37:28.720Z,19.87
2018-09-12T03:39:57.633Z,22.20
2018-09-12T03:42:26.559Z,16.67
2018-09-12T03:44:55.455Z,18.73
2018-09-12T03:47:24.357Z,16.95
2018-09-12T03:49:53.265Z,18.17
2018-09-12T03:52:22.156Z,16.30
2018-09-12T03:54:51.064Z,17.55
2018-09-12T03:57:19.940Z,19.95
2018-09-12T03:59:48.848Z,19.45
2018-09-12T04:02:17.716Z,17.67
2018-09-12T04:04:46.623Z,14.03
2018-09-12T04:07:15.559Z,18.17
2018-09-12T04:09:44.451Z,16.50
2018-09-12T04:12:13.344Z,16.00
2018-09-12T04:14:42.206Z,19.85
2018-09-12T04:17:11.106Z,16.32
2018-09-12T04:19:40.060Z,15.32
2018-09-12T04:22:09.020Z,13.53
2018-09-12T04:24:37.917Z,16.25
2018-09-12T04:27:06.819Z,13.22
2018-09-12T04:29:35.677Z,17.55
2018-09-12T04:32:04.577Z,14.00
2018-09-12T04:34:33.473Z,12.20
2018-09-12T04:37:02.942Z,9.58
2018-09-12T04:39:32.025Z,10.00
2018-09-12T04:42:00.893Z,9.35
2018-09-12T04:44:30.004Z,10.20
2018-09-12T04:46:58.962Z,6.65
2018-09-12T04:49:27.826Z,4.53
2018-09-12T04:51:56.735Z,3.70
2018-09-12T04:54:25.647Z,4.30
2018-09-12T04:56:54.536Z,5.58
2018-09-12T04:59:23.471Z,5.75
2018-09-12T05:01:52.329Z,6.28
2018-09-12T05:04:21.240Z,6.75
2018-09-12T05:06:50.938Z,4.90
2018-09-12T05:09:19.830Z,3.92
2018-09-12T05:11:48.767Z,3.25
2018-09-12T05:14:17.656Z,4.78
2018-09-12T05:16:46.703Z,5.60
2018-09-12T05:19:15.793Z,5.60
2018-09-12T05:21:44.745Z,5.05
2018-09-12T05:24:13.679Z,6.47
2018-09-12T05:26:42.582Z,7.30
2018-09-12T05:29:11.536Z,10.75
2018-09-12T05:31:40.730Z,9.80
2018-09-12T05:34:09.684Z,10.32
2018-09-12T05:36:38.815Z,11.97
2018-09-12T05:39:09.657Z,12.75
2018-09-12T05:41:39.235Z,12.50
2018-09-12T05:44:08.444Z,13.20
2018-09-12T05:46:37.858Z,11.33
2018-09-12T05:49:06.813Z,13.28
2018-09-12T05:51:35.698Z,14.90
2018-09-12T05:54:04.940Z,8.25
2018-09-12T05:56:33.909Z,3.55
2018-09-12T05:59:02.837Z,3.10
2018-09-12T06:01:31.484Z,3.70
2018-09-12T06:04:00.382Z,2.98
2018-09-12T06:06:29.324Z,3.42
2018-09-12T06:08:58.387Z,2.30
2018-09-12T06:11:27.448Z,3.10
2018-09-12T06:13:56.408Z,3.72
2018-09-12T06:16:25.513Z,4.62
2018-09-12T06:18:53.983Z,6.00
2018-09-12T06:21:22.917Z,4.47
2018-09-12T06:23:51.541Z,5.58
2018-09-12T06:26:20.465Z,4.25
2018-09-12T06:28:49.565Z,7.08
2018-09-12T06:31:17.927Z,6.10
2018-09-12T06:33:46.261Z,5.90
2018-09-12T06:36:14.619Z,5.50
2018-09-12T06:38:43.008Z,6.00
2018-09-12T06:41:11.452Z,5.80
2018-09-12T06:43:40.382Z,5.78
2018-09-12T06:46:09.237Z,7.28
2018-09-12T06:48:38.110Z,5.25
2018-09-12T06:51:08.597Z,10.48
2018-09-12T06:53:36.919Z,14.47
2018-09-12T06:56:05.272Z,13.70
2018-09-12T06:58:33.656Z,7.40
2018-09-12T07:01:03.936Z,7.98
2018-09-12T07:03:33.025Z,9.83
2018-09-12T07:06:01.402Z,9.23
2018-09-12T07:08:30.315Z,11.93
2018-09-12T07:10:59.233Z,7.92
2018-09-12T07:13:28.181Z,8.90
2018-09-12T07:15:56.594Z,5.87
2018-09-12T07:18:25.519Z,5.50
2018-09-12T07:20:53.858Z,4.70
2018-09-12T07:23:22.228Z,7.00
2018-09-12T07:25:50.600Z,7.00
2018-09-12T07:28:19.485Z,7.72
2018-09-12T07:30:48.401Z,8.53
2018-09-12T07:33:17.305Z,11.40
2018-09-12T07:35:46.247Z,12.58
2018-09-12T07:38:14.582Z,9.23
2018-09-12T07:40:42.933Z,9.87
2018-09-12T07:43:11.306Z,7.07
2018-09-12T07:45:39.627Z,4.40
2018-09-12T07:48:07.963Z,4.53
2018-09-12T07:50:36.687Z,5.60
2018-09-12T07:53:05.055Z,5.30
2018-09-12T07:55:33.397Z,6.60
2018-09-12T07:58:01.741Z,6.13
2018-09-12T08:00:30.149Z,4.90
2018-09-12T08:02:58.557Z,2.93
2018-09-12T08:05:27.136Z,4.27
2018-09-12T08:07:55.527Z,5.20
2018-09-12T08:10:23.829Z,6.43
2018-09-12T08:12:52.185Z,3.90
2018-09-12T08:15:20.573Z,4.13
2018-09-12T08:17:49.444Z,4.30
2018-09-12T08:20:17.772Z,3.43
2018-09-12T08:22:46.094Z,4.27
2018-09-12T08:25:15.122Z,6.87
2018-09-12T08:27:43.990Z,3.90
2018-09-12T08:30:13.607Z,3.77
2018-09-12T08:32:41.933Z,4.75
2018-09-12T08:35:13.480Z,5.37
2018-09-12T08:37:42.437Z,3.10
2018-09-12T08:40:11.324Z,3.35
2018-09-12T08:42:40.252Z,5.42
2018-09-12T08:45:09.883Z,4.50
2018-09-12T08:47:38.799Z,2.85
2018-09-12T08:50:08.443Z,2.83
2018-09-12T08:52:37.300Z,4.00
2018-09-12T08:55:06.600Z,3.30
2018-09-12T08:57:35.875Z,3.75
2018-09-12T09:00:05.241Z,4.92
2018-09-12T09:02:33.840Z,5.50
2018-09-12T09:05:02.702Z,2.92
2018-09-12T09:07:31.576Z,2.90
2018-09-12T09:10:00.446Z,5.53
2018-09-12T09:12:29.379Z,3.67
2018-09-12T09:14:58.250Z,6.72
2018-09-12T09:17:27.161Z,4.75
2018-09-12T09:19:56.206Z,2.47
2018-09-12T09:22:25.128Z,5.95
2018-09-12T09:24:54.015Z,11.08
2018-09-12T09:27:22.896Z,4.42
2018-09-12T09:29:51.756Z,3.60
2018-09-12T09:32:20.672Z,4.28
2018-09-12T09:34:49.527Z,7.90
2018-09-12T09:37:18.592Z,3.87
2018-09-12T09:39:47.467Z,4.03
2018-09-12T09:42:16.378Z,4.72
2018-09-12T09:44:45.225Z,3.75
2018-09-12T09:47:14.131Z,4.45
2018-09-12T09:49:42.976Z,5.08
2018-09-12T09:52:11.849Z,3.00
2018-09-12T09:54:40.820Z,2.02
2018-09-12T09:57:09.860Z,12.00
2018-09-12T09:59:39.124Z,2.12
2018-09-12T10:02:13.476Z,3.07
2018-09-12T10:04:47.677Z,2.33
2018-09-12T10:07:22.005Z,1.70
2018-09-12T10:09:55.095Z,2.77
2018-09-12T10:12:23.953Z,1.92
2018-09-12T10:14:52.821Z,2.15
2018-09-12T10:17:22.018Z,1.90
2018-09-12T10:19:50.882Z,1.42
2018-09-12T10:22:19.979Z,2.52
2018-09-12T10:24:48.811Z,1.87
2018-09-12T10:27:17.714Z,2.33
2018-09-12T10:29:46.578Z,1.52
2018-09-12T10:32:15.462Z,1.27
2018-09-12T10:34:44.947Z,1.82
2018-09-12T10:37:16.148Z,2.58
2018-09-12T10:39:45.127Z,1.90
2018-09-12T10:42:14.354Z,2.75
2018-09-12T10:44:43.512Z,1.60
2018-09-12T10:47:12.424Z,2.37
2018-09-12T10:49:41.270Z,2.55
2018-09-12T10:52:10.116Z,2.58
2018-09-12T10:54:38.997Z,4.03
2018-09-12T10:57:07.865Z,2.42
2018-09-12T10:59:36.803Z,3.80
2018-09-12T11:02:05.190Z,1.25
2018-09-12T11:04:34.114Z,2.45
2018-09-12T11:07:03.056Z,1.35
2018-09-12T11:09:31.881Z,1.52
2018-09-12T11:12:00.830Z,0.95
2018-09-12T11:14:29.660Z,1.45
2018-09-12T11:16:58.471Z,1.70
2018-09-12T11:19:27.340Z,1.07
2018-09-12T11:21:56.201Z,1.45
2018-09-12T11:25:54.560Z,1.30
2018-09-12T11:28:23.467Z,1.67
2018-09-12T11:30:52.516Z,1.55
2018-09-12T11:33:21.401Z,2.08
2018-09-12T11:35:50.255Z,2.37
2018-09-12T11:38:19.143Z,2.20
2018-09-12T11:40:48.002Z,2.52
2018-09-12T11:43:16.869Z,1.20
2018-09-12T11:45:45.708Z,1.52
2018-09-12T11:48:14.602Z,1.25
2018-09-12T11:50:43.478Z,1.47
2018-09-12T11:53:12.336Z,1.50
2018-09-12T11:55:41.158Z,1.82
2018-09-12T11:58:10.028Z,2.70
2018-09-12T12:00:38.957Z,3.25
2018-09-12T12:03:07.619Z,2.17
2018-09-12T12:05:36.536Z,3.83
2018-09-12T12:08:05.445Z,4.10
2018-09-12T12:10:34.322Z,3.40
2018-09-12T12:13:03.148Z,3.35
2018-09-12T12:15:32.076Z,3.02
2018-09-12T12:18:00.960Z,5.85
2018-09-12T12:20:29.868Z,5.50
2018-09-12T12:22:58.747Z,3.20
2018-09-12T12:25:27.611Z,3.83
2018-09-12T12:27:56.526Z,4.95
2018-09-12T12:30:25.425Z,4.17
2018-09-12T12:32:54.372Z,2.22
2018-09-12T12:35:23.733Z,4.42
2018-09-12T12:37:53.079Z,1.95
2018-09-12T12:40:22.417Z,4.50
2018-09-12T12:42:51.250Z,3.27
2018-09-12T12:45:20.482Z,4.22
2018-09-12T12:47:49.435Z,3.22
2018-09-12T12:50:18.284Z,3.75
2018-09-12T12:52:47.199Z,2.87
2018-09-12T12:55:16.096Z,4.33
2018-09-12T12:57:44.963Z,3.67
2018-09-12T13:00:13.804Z,2.62
2018-09-12T13:02:42.695Z,4.80
2018-09-12T13:05:11.539Z,3.80
2018-09-12T13:07:40.478Z,3.67
2018-09-12T13:10:09.363Z,3.80
2018-09-12T13:12:38.244Z,3.67
2018-09-12T13:15:07.096Z,3.15
2018-09-12T13:17:35.960Z,4.62
2018-09-12T13:20:05.418Z,3.30
2018-09-12T13:22:34.301Z,2.72
2018-09-12T13:25:03.137Z,2.15
2018-09-12T13:27:32.045Z,1.95
2018-09-12T13:30:01.012Z,2.55
2018-09-12T13:32:29.915Z,2.22
2018-09-12T13:34:58.765Z,1.60
2018-09-12T13:37:27.606Z,1.77
2018-09-12T13:39:56.527Z,3.92
2018-09-12T13:42:25.571Z,1.72
2018-09-12T13:44:54.451Z,2.77
2018-09-12T13:47:23.330Z,3.72
2018-09-12T13:49:52.171Z,2.67
2018-09-12T13:52:21.050Z,2.33
2018-09-12T13:54:49.936Z,1.92
2018-09-12T13:57:18.844Z,2.70
2018-09-12T13:59:47.725Z,4.10
2018-09-12T14:02:16.328Z,2.50
2018-09-12T14:04:45.222Z,2.87
2018-09-12T14:07:14.113Z,2.47
2018-09-12T14:09:43.051Z,2.65
2018-09-12T14:12:11.927Z,2.05
2018-09-12T14:14:40.789Z,2.58
2018-09-12T14:17:09.667Z,3.85
2018-09-12T14:19:38.503Z,3.67
2018-09-12T14:22:07.438Z,3.15
2018-09-12T14:24:36.316Z,4.50
2018-09-12T14:27:05.262Z,5.85
2018-09-12T14:29:34.118Z,3.30
2018-09-12T14:32:03.056Z,5.28
2018-09-12T14:34:32.176Z,3.15
2018-09-12T14:37:01.084Z,3.95
2018-09-12T14:39:29.983Z,4.55
2018-09-12T14:41:59.118Z,6.58
2018-09-12T14:44:28.158Z,6.20
2018-09-12T14:46:57.049Z,6.35
2018-09-12T14:49:26.022Z,4.87
2018-09-12T14:51:54.948Z,4.80
2018-09-12T14:54:23.859Z,4.12
2018-09-12T14:56:52.730Z,4.53
2018-09-12T14:59:21.596Z,2.75
2018-09-12T15:01:50.220Z,4.50
2018-09-12T15:04:19.123Z,3.33
2018-09-12T15:06:47.991Z,2.92
2018-09-12T15:09:16.811Z,3.75
2018-09-12T15:11:45.712Z,2.40
2018-09-12T15:14:14.558Z,3.47
2018-09-12T15:16:43.439Z,4.83
2018-09-12T15:19:12.523Z,5.00
2018-09-12T15:21:41.395Z,2.70
2018-09-12T15:24:10.223Z,2.72
2018-09-12T15:26:39.293Z,2.77
2018-09-12T15:29:08.420Z,4.78
2018-09-12T15:31:37.317Z,3.80
2018-09-12T15:34:06.605Z,3.17
2018-09-12T15:36:35.543Z,3.47
2018-09-12T15:39:06.960Z,2.62
2018-09-12T15:41:35.883Z,2.75
2018-09-12T15:44:04.740Z,2.77
2018-09-12T15:46:33.678Z,4.53
2018-09-12T15:49:02.560Z,4.47
2018-09-12T15:51:31.456Z,3.95
2018-09-12T15:54:00.685Z,3.20
2018-09-12T15:56:29.588Z,3.25
2018-09-12T15:58:58.644Z,4.45
2018-09-12T16:01:27.295Z,3.47
2018-09-12T16:03:56.189Z,1.98
2018-09-12T16:06:25.208Z,2.37
2018-09-12T16:08:54.064Z,5.47
2018-09-12T16:11:22.946Z,2.80
2018-09-12T16:13:51.957Z,4.00
2018-09-12T16:16:20.929Z,2.12
2018-09-12T16:18:49.836Z,5.00
2018-09-12T16:21:18.810Z,3.72
2018-09-12T16:23:47.676Z,5.45
2018-09-12T16:26:16.586Z,4.50
2018-09-12T16:28:54.860Z,2.30
2018-09-12T16:31:24.869Z,3.30
2018-09-12T16:33:53.820Z,3.58
2018-09-12T16:36:23.408Z,3.80
2018-09-12T16:38:53.832Z,2.98
2018-09-12T16:41:23.053Z,2.17
2018-09-12T16:43:52.512Z,4.00
2018-09-12T16:46:21.503Z,4.78
2018-09-12T16:48:50.405Z,2.67
2018-09-12T16:51:19.306Z,5.72
2018-09-12T16:53:48.208Z,3.02
2018-09-12T16:56:17.219Z,4.22
2018-09-12T16:58:46.308Z,2.77
2018-09-12T17:01:15.275Z,2.83
2018-09-12T17:03:44.181Z,4.30
2018-09-12T17:06:13.160Z,2.98
2018-09-12T17:08:42.102Z,2.30
2018-09-12T17:11:11.070Z,3.00
2018-09-12T17:13:39.982Z,4.22
2018-09-12T17:16:08.899Z,5.05
2018-09-12T17:18:37.873Z,3.70
2018-09-12T17:21:06.864Z,3.30
2018-09-12T17:23:35.839Z,8.53
2018-09-12T17:26:04.810Z,2.87
2018-09-12T17:28:33.729Z,2.77
2018-09-12T17:31:02.632Z,2.30
2018-09-12T17:33:31.578Z,1.95
2018-09-12T17:36:00.447Z,2.58
2018-09-12T17:38:29.356Z,2.62
2018-09-12T17:40:58.294Z,3.33
2018-09-12T17:43:27.193Z,2.42
2018-09-12T17:45:56.130Z,2.83
2018-09-12T17:48:25.140Z,3.25
2018-09-12T17:50:54.081Z,2.77
2018-09-12T17:53:23.087Z,3.10
2018-09-12T17:55:52.078Z,3.62
2018-09-12T17:58:21.104Z,2.05
2018-09-12T18:00:50.083Z,3.42
2018-09-12T18:03:19.023Z,4.37
2018-09-12T18:05:48.022Z,3.08
2018-09-12T18:08:17.098Z,4.60
2018-09-12T18:10:46.104Z,2.52
2018-09-12T18:15:55.555Z,3.85
2018-09-12T18:18:24.573Z,3.95
2018-09-12T18:20:53.522Z,4.12
2018-09-12T18:23:22.622Z,2.95
2018-09-12T18:25:51.750Z,3.08
2018-09-12T18:28:20.834Z,3.65
2018-09-12T18:30:50.158Z,5.78
2018-09-12T18:33:19.204Z,3.02
2018-09-12T18:35:48.273Z,2.77
2018-09-12T18:38:17.436Z,3.62
2018-09-12T18:40:46.686Z,3.65
2018-09-12T18:43:15.820Z,6.55
2018-09-12T18:45:45.022Z,3.62
2018-09-12T18:48:14.096Z,3.90
2018-09-12T18:50:43.104Z,3.67
2018-09-12T18:53:13.051Z,4.58
2018-09-12T18:55:42.091Z,3.45
2018-09-12T18:58:11.024Z,5.58
2018-09-12T19:00:40.055Z,5.55
2018-09-12T19:03:08.984Z,4.87
2018-09-12T19:05:38.096Z,4.67
2018-09-12T19:08:07.112Z,4.60
2018-09-12T19:10:36.096Z,4.50
2018-09-12T19:13:04.454Z,3.83
2018-09-12T19:15:33.585Z,5.17
2018-09-12T19:18:02.578Z,3.70
2018-09-12T19:20:31.700Z,5.83
2018-09-12T19:23:00.923Z,4.17
2018-09-12T19:25:29.862Z,3.92
2018-09-12T19:27:58.805Z,3.62
2018-09-12T19:30:27.799Z,5.08
2018-09-12T19:32:56.728Z,5.42
2018-09-12T19:35:25.631Z,5.53
2018-09-12T19:37:54.549Z,3.98
2018-09-12T19:40:23.361Z,3.87
2018-09-12T19:42:52.392Z,6.20
2018-09-12T19:45:21.264Z,3.83
2018-09-12T19:47:50.264Z,4.95
2018-09-12T19:50:18.829Z,3.73
2018-09-12T19:52:47.976Z,4.75
2018-09-12T19:55:17.085Z,4.87
2018-09-12T19:57:45.491Z,6.50
2018-09-12T20:00:16.291Z,4.03
2018-09-12T20:02:45.199Z,6.10
2018-09-12T20:05:13.651Z,4.67
2018-09-12T20:07:41.986Z,3.33
2018-09-12T20:10:10.588Z,5.77
2018-09-12T20:12:39.325Z,4.28
2018-09-12T20:15:08.473Z,6.55
2018-09-12T20:17:36.838Z,4.43
2018-09-12T20:20:05.219Z,4.83
2018-09-12T20:22:33.556Z,5.73
2018-09-12T20:25:02.427Z,5.87
2018-09-12T20:27:31.326Z,3.58
2018-09-12T20:29:59.711Z,4.77
2018-09-12T20:32:28.819Z,6.78
2018-09-12T20:34:57.914Z,5.12
2018-09-12T20:37:26.271Z,9.00
2018-09-12T20:39:55.240Z,5.12
2018-09-12T20:42:23.675Z,3.20
2018-09-12T20:44:52.586Z,4.33
2018-09-12T20:47:20.939Z,6.73
2018-09-12T20:49:49.312Z,5.28
2018-09-12T20:52:18.129Z,5.27
2018-09-12T20:54:46.636Z,3.93
2018-09-12T20:57:14.987Z,4.47
2018-09-12T20:59:43.297Z,6.77
2018-09-12T21:02:11.640Z,8.23
2018-09-12T21:04:39.978Z,5.40
2018-09-12T21:07:08.864Z,6.80
2018-09-12T21:09:37.182Z,4.50
2018-09-12T21:12:05.531Z,5.70
2018-09-12T21:14:34.427Z,7.60
2018-09-12T21:17:03.412Z,5.45
2018-09-12T21:19:32.353Z,6.87
2018-09-12T21:22:00.738Z,5.53
2018-09-12T21:24:29.088Z,9.07
2018-09-12T21:26:57.446Z,6.80
2018-09-12T21:29:25.821Z,11.80
2018-09-12T21:31:54.159Z,7.90
2018-09-12T21:34:22.510Z,10.90
2018-09-12T21:36:50.841Z,7.90
2018-09-12T21:39:19.184Z,6.17
2018-09-12T21:41:47.562Z,11.10
2018-09-12T21:44:15.900Z,5.93
2018-09-12T21:46:44.245Z,8.00
2018-09-12T21:49:13.137Z,9.65
2018-09-12T21:51:41.470Z,7.87
2018-09-12T21:54:09.885Z,6.57
2018-09-12T21:56:38.314Z,7.50
2018-09-12T21:59:06.753Z,9.03
2018-09-12T22:01:35.101Z,6.37
2018-09-12T22:04:03.505Z,5.37
2018-09-12T22:06:31.894Z,10.33
2018-09-12T22:09:00.311Z,8.17
2018-09-12T22:11:28.625Z,8.50
2018-09-12T22:13:56.977Z,6.70
2018-09-12T22:16:25.309Z,11.17
2018-09-12T22:18:53.720Z,5.87
2018-09-12T22:21:22.091Z,5.97
2018-09-12T22:23:50.552Z,6.60
2018-09-12T22:26:18.878Z,5.80
2018-09-12T22:28:47.230Z,6.67
2018-09-12T22:31:15.608Z,6.57
2018-09-12T22:33:43.975Z,5.93
2018-09-12T22:36:12.610Z,4.83
2018-09-12T22:38:40.946Z,6.27
2018-09-12T22:41:09.360Z,7.23
2018-09-12T22:43:37.699Z,5.00
2018-09-12T22:46:06.017Z,5.43
2018-09-12T22:48:34.381Z,5.93
2018-09-12T22:51:02.777Z,6.23
2018-09-12T22:53:31.279Z,6.90
2018-09-12T22:56:00.012Z,9.30
2018-09-12T22:58:28.711Z,6.07
2018-09-12T23:00:57.200Z,8.10
2018-09-12T23:03:25.618Z,5.77
2018-09-12T23:05:54.278Z,7.53
2018-09-12T23:08:22.605Z,8.67
2018-09-12T23:10:50.949Z,6.03
2018-09-12T23:13:19.237Z,9.03
2018-09-12T23:15:47.565Z,7.13
2018-09-12T23:18:15.965Z,8.20
2018-09-12T23:20:44.590Z,6.37
2018-09-12T23:23:12.905Z,6.20
2018-09-12T23:25:41.197Z,7.93
2018-09-12T23:28:09.574Z,9.20
2018-09-12T23:30:37.904Z,7.77
2018-09-12T23:33:06.195Z,6.87
2018-09-12T23:35:34.450Z,6.40
2018-09-12T23:38:02.779Z,6.10
2018-09-12T23:40:31.070Z,9.33
2018-09-12T23:42:59.376Z,3.83
2018-09-12T23:45:27.655Z,7.13
2018-09-12T23:47:55.963Z,6.43
2018-09-12T23:50:24.257Z,6.17
2018-09-12T23:52:52.618Z,6.70
2018-09-12T23:55:20.940Z,4.67
2018-09-12T23:57:49.277Z,6.53
